Time;durP1;ratioP1;P1;durP2;ratioP2;P2;SDS_P1;SDS_P2;PMS_P1;PMS_P2;Temp;Humidity;BMP_temperature;BMP_pressure;BME280_temperature;BME280_humidity;BME280_pressure;Samples;Min_cycle;Max_cycle;Signal;HPM_P1;HPM_P2
2022/10/22 00:01:51;;;;;;;0.10;0.10;;;13.50;99.90;;;;;;5130823;27;20035;-78
2022/10/22 00:04:16;;;;;;;0.10;0.10;;;13.50;99.90;;;;;;5129335;27;20509;-78
2022/10/22 00:06:43;;;;;;;0.10;0.10;;;13.50;99.90;;;;;;5147400;27;20478;-78
2022/10/22 00:09:10;;;;;;;1.98;0.55;;;13.50;99.90;;;;;;5153454;27;20099;-78
2022/10/22 00:11:36;;;;;;;0.10;0.10;;;13.40;99.90;;;;;;5153571;27;20042;-78
2022/10/22 00:14:02;;;;;;;0.10;0.10;;;13.30;99.90;;;;;;5152579;27;20126;-78
2022/10/22 00:16:28;;;;;;;0.20;0.20;;;13.30;99.90;;;;;;5138928;27;20394;-78
2022/10/22 00:18:53;;;;;;;0.28;0.28;;;13.30;99.90;;;;;;5132328;27;20035;-77
2022/10/22 00:21:19;;;;;;;0.10;0.10;;;13.30;99.90;;;;;;5133216;27;20047;-78
2022/10/22 00:23:44;;;;;;;0.43;0.43;;;13.30;99.90;;;;;;5147232;27;20054;-78
2022/10/22 00:26:10;;;;;;;0.75;0.75;;;13.30;99.90;;;;;;5140948;27;20039;-78
2022/10/22 00:28:36;;;;;;;0.10;0.10;;;13.40;99.90;;;;;;5132382;27;20047;-78
2022/10/22 00:31:02;;;;;;;0.10;0.10;;;13.30;99.90;;;;;;5145820;27;20031;-78
2022/10/22 00:33:29;;;;;;;0.10;0.10;;;13.20;99.90;;;;;;5125658;27;20047;-78
2022/10/22 00:35:55;;;;;;;0.25;0.25;;;13.20;99.90;;;;;;5141881;27;20039;-78
2022/10/22 00:38:21;;;;;;;0.50;0.50;;;13.20;99.90;;;;;;5148127;27;20050;-78
2022/10/22 00:40:46;;;;;;;1.30;0.65;;;13.10;99.90;;;;;;5135787;27;20050;-78
2022/10/22 00:43:14;;;;;;;0.20;0.20;;;13.10;99.90;;;;;;5151126;27;20393;-78
2022/10/22 00:45:42;;;;;;;1.17;1.08;;;13.10;99.90;;;;;;5132108;27;20051;-77
2022/10/22 00:48:16;;;;;;;0.10;0.10;;;13.20;99.90;;;;;;5126666;27;20047;-77
2022/10/22 00:50:58;;;;;;;5.45;0.82;;;13.10;99.90;;;;;;5137548;27;20055;-77
2022/10/22 00:53:38;;;;;;;0.95;0.90;;;13.00;99.90;;;;;;5138666;27;20047;-77
2022/10/22 00:56:04;;;;;;;0.20;0.20;;;13.00;99.90;;;;;;5137523;27;20493;-77
2022/10/22 00:58:33;;;;;;;0.10;0.10;;;12.90;99.90;;;;;;5135564;27;20071;-77
2022/10/22 01:00:59;;;;;;;0.93;0.85;;;12.90;99.90;;;;;;5136499;27;20482;-77
2022/10/22 01:03:25;;;;;;;0.00;0.00;;;12.90;99.90;;;;;;5150477;27;20057;-78
2022/10/22 01:05:57;;;;;;;0.35;0.35;;;12.90;99.90;;;;;;5140473;27;20043;-78
2022/10/22 01:08:42;;;;;;;0.80;0.50;;;12.90;99.90;;;;;;5120484;27;20075;-77
2022/10/22 01:11:24;;;;;;;0.10;0.10;;;12.90;99.90;;;;;;5127799;27;20091;-78
2022/10/22 01:13:49;;;;;;;6.40;0.40;;;12.90;99.90;;;;;;5150123;27;20128;-78
2022/10/22 01:16:36;;;;;;;0.10;0.10;;;12.80;99.90;;;;;;5149427;27;20117;-78
2022/10/22 01:19:29;;;;;;;0.10;0.10;;;12.90;99.90;;;;;;5150489;27;20049;-78
2022/10/22 01:22:26;;;;;;;0.57;0.40;;;12.90;99.90;;;;;;5132517;27;20047;-77
2022/10/22 01:25:13;;;;;;;0.10;0.10;;;12.90;99.90;;;;;;5113420;27;20043;-77
2022/10/22 01:27:51;;;;;;;0.20;0.20;;;12.90;99.90;;;;;;5146924;27;20057;-78
2022/10/22 01:30:18;;;;;;;0.30;0.30;;;13.00;99.90;;;;;;5130483;27;20842;-78
2022/10/22 01:32:51;;;;;;;0.60;0.60;;;13.00;99.90;;;;;;5151137;27;20038;-78
2022/10/22 01:35:22;;;;;;;0.00;0.00;;;13.10;99.90;;;;;;5114415;27;20050;-78
2022/10/22 01:37:57;;;;;;;0.10;0.10;;;13.10;99.90;;;;;;5137903;27;20187;-78
2022/10/22 01:40:25;;;;;;;0.22;0.22;;;13.20;99.90;;;;;;5135498;27;20039;-78
2022/10/22 01:43:05;;;;;;;0.00;0.00;;;13.20;99.90;;;;;;5135679;27;20065;-78
2022/10/22 01:45:47;;;;;;;0.15;0.15;;;13.20;99.90;;;;;;5124647;27;20061;-78
2022/10/22 01:48:18;;;;;;;0.38;0.38;;;13.20;99.90;;;;;;5155402;27;20047;-78
2022/10/22 01:51:28;;;;;;;0.00;0.00;;;13.20;99.90;;;;;;5148274;27;20138;-78
2022/10/22 01:54:12;;;;;;;0.03;0.03;;;13.10;99.90;;;;;;5131212;27;20052;-78
2022/10/22 01:56:41;;;;;;;0.13;0.13;;;13.10;99.90;;;;;;5152702;27;20129;-78
2022/10/22 01:59:26;;;;;;;0.30;0.30;;;13.10;99.90;;;;;;5152192;27;20630;-78
2022/10/22 02:01:52;;;;;;;0.63;0.40;;;13.20;99.90;;;;;;5123098;27;20083;-77
2022/10/22 02:04:27;;;;;;;0.10;0.10;;;13.10;99.90;;;;;;5133765;27;20081;-78
2022/10/22 02:06:58;;;;;;;0.30;0.30;;;13.20;99.90;;;;;;5133837;27;20074;-78
2022/10/22 02:09:25;;;;;;;0.10;0.10;;;13.20;99.90;;;;;;5136591;27;20043;-78
2022/10/22 02:11:52;;;;;;;0.10;0.10;;;13.20;99.90;;;;;;5131398;27;20031;-78
2022/10/22 02:14:18;;;;;;;0.73;0.73;;;13.20;99.90;;;;;;5141506;27;20118;-77
2022/10/22 02:16:46;;;;;;;0.10;0.10;;;13.20;99.90;;;;;;5131727;27;20055;-77
2022/10/22 02:19:34;;;;;;;2.30;1.48;;;13.20;99.90;;;;;;5150541;27;20091;-77
2022/10/22 02:22:00;;;;;;;2.33;0.73;;;13.30;99.90;;;;;;5129597;27;20134;-77
2022/10/22 02:24:25;;;;;;;0.20;0.20;;;13.30;99.90;;;;;;5154298;27;20146;-77
2022/10/22 02:27:06;;;;;;;0.10;0.10;;;13.30;99.90;;;;;;5151545;27;20122;-77
2022/10/22 02:29:38;;;;;;;0.08;0.08;;;13.30;99.90;;;;;;5137956;27;20432;-77
2022/10/22 02:32:08;;;;;;;0.20;0.20;;;13.30;99.90;;;;;;5153473;27;20034;-77
2022/10/22 02:34:34;;;;;;;0.63;0.63;;;13.40;99.90;;;;;;5153949;27;20047;-76
2022/10/22 02:37:02;;;;;;;1.45;0.95;;;13.40;99.90;;;;;;5140553;27;20035;-77
2022/10/22 02:39:29;;;;;;;0.10;0.10;;;13.40;99.90;;;;;;5122281;27;20062;-77
2022/10/22 02:41:56;;;;;;;0.65;0.28;;;13.40;99.90;;;;;;5145554;27;20039;-77
2022/10/22 02:44:22;;;;;;;0.70;0.70;;;13.40;99.90;;;;;;5149998;27;20042;-77
2022/10/22 02:46:48;;;;;;;0.35;0.35;;;13.40;99.90;;;;;;5132889;27;20049;-77
2022/10/22 02:49:14;;;;;;;0.10;0.10;;;13.50;99.90;;;;;;5123839;27;20115;-77
2022/10/22 02:51:39;;;;;;;0.28;0.22;;;13.50;99.90;;;;;;5127938;27;20038;-77
2022/10/22 02:54:05;;;;;;;0.03;0.03;;;13.50;99.90;;;;;;5152560;27;20126;-77
2022/10/22 02:56:31;;;;;;;0.03;0.03;;;13.50;99.90;;;;;;5150518;27;20035;-76
2022/10/22 02:58:56;;;;;;;0.75;0.75;;;13.60;99.90;;;;;;5155012;27;20043;-77
2022/10/22 03:01:22;;;;;;;0.10;0.10;;;13.60;99.90;;;;;;5152683;27;20046;-76
2022/10/22 03:03:47;;;;;;;0.10;0.10;;;13.50;99.90;;;;;;5139467;27;20047;-76
2022/10/22 03:06:13;;;;;;;0.30;0.30;;;13.50;99.90;;;;;;5131666;27;20439;-76
2022/10/22 03:08:39;;;;;;;0.10;0.10;;;13.60;99.90;;;;;;5129795;27;20047;-76
2022/10/22 03:11:05;;;;;;;0.15;0.15;;;13.60;99.90;;;;;;5134192;27;20031;-76
2022/10/22 03:13:30;;;;;;;0.20;0.20;;;13.60;99.90;;;;;;5153049;27;20039;-77
2022/10/22 03:15:56;;;;;;;0.10;0.10;;;13.60;99.90;;;;;;5141958;27;20053;-76
2022/10/22 03:18:21;;;;;;;0.30;0.30;;;13.60;99.90;;;;;;5142554;27;20387;-76
2022/10/22 03:20:47;;;;;;;0.30;0.30;;;13.60;99.90;;;;;;5151284;27;20051;-76
2022/10/22 03:23:16;;;;;;;0.20;0.20;;;13.60;99.90;;;;;;5152469;27;20039;-76
2022/10/22 03:25:42;;;;;;;0.10;0.10;;;13.60;99.90;;;;;;5132124;27;20050;-76
2022/10/22 03:28:12;;;;;;;0.00;0.00;;;13.60;99.90;;;;;;5136063;27;20082;-76
2022/10/22 03:30:38;;;;;;;0.20;0.20;;;13.60;99.90;;;;;;5132061;27;20047;-77
2022/10/22 03:33:03;;;;;;;0.10;0.10;;;13.60;99.90;;;;;;5133365;27;20050;-76
2022/10/22 03:35:30;;;;;;;0.20;0.20;;;13.60;99.90;;;;;;5138515;27;20480;-77
2022/10/22 03:37:59;;;;;;;0.05;0.05;;;13.60;99.90;;;;;;5121754;27;20429;-77
2022/10/22 03:40:25;;;;;;;0.03;0.03;;;13.60;99.90;;;;;;5140823;27;20115;-77
2022/10/22 03:42:51;;;;;;;0.15;0.15;;;13.60;99.90;;;;;;5134219;27;20082;-77
2022/10/22 03:45:17;;;;;;;0.10;0.10;;;13.60;99.90;;;;;;5131056;27;20481;-77
2022/10/22 03:47:42;;;;;;;0.10;0.10;;;13.60;99.90;;;;;;5137002;27;20042;-77
2022/10/22 03:50:08;;;;;;;0.10;0.10;;;13.60;99.90;;;;;;5149673;27;20058;-76
2022/10/22 03:52:36;;;;;;;0.10;0.10;;;13.60;99.90;;;;;;5138010;27;20482;-77
2022/10/22 03:55:03;;;;;;;0.10;0.10;;;13.60;99.90;;;;;;5125965;27;20095;-77
2022/10/22 03:57:28;;;;;;;0.15;0.15;;;13.60;99.90;;;;;;5150924;27;20043;-77
2022/10/22 03:59:54;;;;;;;0.17;0.17;;;13.60;99.90;;;;;;5136997;27;20088;-77
2022/10/22 04:02:20;;;;;;;0.25;0.25;;;13.60;99.90;;;;;;5132479;27;20058;-77
2022/10/22 04:04:46;;;;;;;0.10;0.10;;;13.60;99.90;;;;;;5132681;27;20058;-77
2022/10/22 04:07:11;;;;;;;0.17;0.17;;;13.60;99.90;;;;;;5122362;27;20043;-77
2022/10/22 04:09:37;;;;;;;0.08;0.08;;;13.60;99.90;;;;;;5142312;27;20466;-77
2022/10/22 04:12:05;;;;;;;0.08;0.08;;;13.50;99.90;;;;;;5147489;27;20042;-77
2022/10/22 04:14:31;;;;;;;2.90;1.25;;;13.50;99.90;;;;;;5151780;27;20387;-77
2022/10/22 04:16:56;;;;;;;0.00;0.00;;;13.50;99.90;;;;;;5134544;27;20039;-77
2022/10/22 04:19:22;;;;;;;0.10;0.10;;;13.60;99.90;;;;;;5131727;27;20400;-76
2022/10/22 04:21:47;;;;;;;0.00;0.00;;;13.60;99.90;;;;;;5142396;27;20549;-76
2022/10/22 04:24:13;;;;;;;0.08;0.08;;;13.60;99.90;;;;;;5145109;27;20035;-77
2022/10/22 04:26:38;;;;;;;0.10;0.10;;;13.50;99.90;;;;;;5144617;27;20077;-76
2022/10/22 04:29:06;;;;;;;0.00;0.00;;;13.60;99.90;;;;;;5145174;27;20171;-76
2022/10/22 04:31:32;;;;;;;0.10;0.10;;;13.60;99.90;;;;;;5140941;27;20042;-76
2022/10/22 04:33:59;;;;;;;0.55;0.55;;;13.60;99.90;;;;;;5150749;27;20064;-77
2022/10/22 04:36:25;;;;;;;0.65;0.65;;;13.60;99.90;;;;;;5150911;27;20471;-77
2022/10/22 04:38:54;;;;;;;0.10;0.10;;;13.60;99.90;;;;;;5132143;27;20043;-76
2022/10/22 04:41:26;;;;;;;0.10;0.10;;;13.60;99.90;;;;;;5134052;27;20112;-76
2022/10/22 04:43:53;;;;;;;0.00;0.00;;;13.60;99.90;;;;;;5149525;27;20061;-76
2022/10/22 04:46:19;;;;;;;0.20;0.20;;;13.50;99.90;;;;;;5139450;27;20047;-77
2022/10/22 04:48:45;;;;;;;0.25;0.25;;;13.60;99.90;;;;;;5132064;27;20047;-77
2022/10/22 04:51:14;;;;;;;0.10;0.10;;;13.50;99.90;;;;;;5113084;27;20047;-76
2022/10/22 04:53:40;;;;;;;0.00;0.00;;;13.60;99.90;;;;;;5149759;27;20120;-77
2022/10/22 04:56:20;;;;;;;0.00;0.00;;;13.50;99.90;;;;;;5140513;27;20215;-76
2022/10/22 04:58:52;;;;;;;0.20;0.20;;;13.50;99.90;;;;;;5132272;27;20039;-77
2022/10/22 05:01:20;;;;;;;0.30;0.30;;;13.50;99.90;;;;;;5111729;27;20707;-77
2022/10/22 05:03:48;;;;;;;0.10;0.10;;;13.50;99.90;;;;;;5140040;27;20066;-77
2022/10/22 05:06:15;;;;;;;0.10;0.10;;;13.50;99.90;;;;;;5148481;27;20042;-76
2022/10/22 05:08:42;;;;;;;0.38;0.38;;;13.50;99.90;;;;;;5151885;27;20046;-77
2022/10/22 05:11:29;;;;;;;0.10;0.10;;;13.50;99.90;;;;;;5150251;27;20042;-76
2022/10/22 05:13:56;;;;;;;0.28;0.28;;;13.50;99.90;;;;;;5133716;27;20050;-77
2022/10/22 05:16:22;;;;;;;0.10;0.10;;;13.50;99.90;;;;;;5151022;27;20441;-77
2022/10/22 05:18:48;;;;;;;0.10;0.10;;;13.50;99.90;;;;;;5137745;27;20038;-77
2022/10/22 05:21:16;;;;;;;0.45;0.32;;;13.50;99.90;;;;;;5148031;27;20391;-77
2022/10/22 05:23:43;;;;;;;0.68;0.68;;;13.50;99.90;;;;;;5132820;27;20058;-78
2022/10/22 05:26:10;;;;;;;0.10;0.10;;;13.50;99.90;;;;;;5123436;27;20074;-78
2022/10/22 05:28:36;;;;;;;0.10;0.10;;;13.40;99.90;;;;;;5118883;28;20039;-78
2022/10/22 05:31:02;;;;;;;0.00;0.00;;;13.50;99.90;;;;;;5146436;27;20038;-78
2022/10/22 05:33:30;;;;;;;0.00;0.00;;;13.40;99.90;;;;;;5132300;27;20419;-78
2022/10/22 05:35:56;;;;;;;0.10;0.10;;;13.40;99.90;;;;;;5151032;27;20049;-78
2022/10/22 05:38:22;;;;;;;3.40;0.80;;;13.40;99.90;;;;;;5149922;27;20130;-78
2022/10/22 05:40:57;;;;;;;0.00;0.00;;;13.40;99.90;;;;;;5143224;27;20038;-79
2022/10/22 05:43:23;;;;;;;0.00;0.00;;;13.40;99.90;;;;;;5142143;27;20103;-79
2022/10/22 05:45:48;;;;;;;0.40;0.40;;;13.50;99.90;;;;;;5132674;27;20486;-79
2022/10/22 05:48:14;;;;;;;0.00;0.00;;;13.50;99.90;;;;;;5143368;27;20061;-79
2022/10/22 05:50:39;;;;;;;0.55;0.55;;;13.40;99.90;;;;;;5137196;27;20066;-78
2022/10/22 05:53:05;;;;;;;0.10;0.10;;;13.50;99.90;;;;;;5145555;27;20031;-78
2022/10/22 05:55:39;;;;;;;0.10;0.10;;;13.50;99.90;;;;;;5138045;27;20041;-78
2022/10/22 05:58:05;;;;;;;0.10;0.10;;;13.50;99.90;;;;;;5140870;27;20483;-78
2022/10/22 06:00:33;;;;;;;0.10;0.10;;;13.40;99.90;;;;;;5132620;27;20046;-78
2022/10/22 06:02:58;;;;;;;0.10;0.10;;;13.50;99.90;;;;;;5151950;27;20055;-77
2022/10/22 06:05:24;;;;;;;0.00;0.00;;;13.40;99.90;;;;;;5138473;27;20047;-77
2022/10/22 06:07:49;;;;;;;0.10;0.10;;;13.40;99.90;;;;;;5138230;27;20043;-77
2022/10/22 06:10:19;;;;;;;0.20;0.20;;;13.40;99.90;;;;;;5138879;27;20074;-77
2022/10/22 06:12:47;;;;;;;0.10;0.10;;;13.50;99.90;;;;;;5130985;28;20122;-77
2022/10/22 06:15:14;;;;;;;0.45;0.45;;;13.40;99.90;;;;;;5116175;27;20039;-77
2022/10/22 06:17:40;;;;;;;0.00;0.00;;;13.40;99.90;;;;;;5151446;27;20099;-77
2022/10/22 06:20:06;;;;;;;0.57;0.57;;;13.40;99.90;;;;;;5150058;27;20121;-77
2022/10/22 06:22:32;;;;;;;0.00;0.00;;;13.40;99.90;;;;;;5135561;27;20047;-77
2022/10/22 06:24:58;;;;;;;0.15;0.15;;;13.40;99.90;;;;;;5150565;27;20768;-77
2022/10/22 06:27:23;;;;;;;0.00;0.00;;;13.50;99.90;;;;;;5147508;27;20118;-77
2022/10/22 06:29:49;;;;;;;0.20;0.15;;;13.40;99.90;;;;;;5155441;27;20061;-77
2022/10/22 06:32:14;;;;;;;0.10;0.10;;;13.50;99.90;;;;;;5150000;27;20035;-77
2022/10/22 06:34:40;;;;;;;0.10;0.10;;;13.40;99.90;;;;;;5141362;27;20039;-77
2022/10/22 06:37:05;;;;;;;0.10;0.10;;;13.40;99.90;;;;;;5134495;27;20517;-76
2022/10/22 06:39:31;;;;;;;0.00;0.00;;;13.50;99.90;;;;;;5146012;27;20039;-76
2022/10/22 06:41:56;;;;;;;0.10;0.10;;;13.40;99.90;;;;;;5141771;27;20433;-76
2022/10/22 06:44:22;;;;;;;2.60;0.15;;;13.40;99.90;;;;;;5135016;27;20047;-76
2022/10/22 06:46:51;;;;;;;0.32;0.30;;;13.40;99.90;;;;;;5148117;27;20038;-76
2022/10/22 06:49:18;;;;;;;0.10;0.10;;;13.40;99.90;;;;;;5134879;27;20039;-76
2022/10/22 06:51:45;;;;;;;0.45;0.45;;;13.50;99.90;;;;;;5146232;27;20126;-77
2022/10/22 06:54:10;;;;;;;0.20;0.20;;;13.40;99.90;;;;;;5152022;27;20085;-76
2022/10/22 06:56:36;;;;;;;0.15;0.15;;;13.40;99.90;;;;;;5131007;27;20483;-76
2022/10/22 06:59:02;;;;;;;0.10;0.10;;;13.50;99.90;;;;;;5148854;27;20481;-76
2022/10/22 07:01:33;;;;;;;0.10;0.10;;;13.50;99.90;;;;;;5132989;27;20112;-76
2022/10/22 07:04:00;;;;;;;0.55;0.55;;;13.50;99.90;;;;;;5126910;27;20039;-77
2022/10/22 07:06:27;;;;;;;0.10;0.10;;;13.60;99.90;;;;;;5134275;27;20132;-76
2022/10/22 07:08:54;;;;;;;13.15;2.47;;;13.60;99.90;;;;;;5132050;27;20061;-76
2022/10/22 07:11:22;;;;;;;0.20;0.20;;;13.60;99.90;;;;;;5143722;27;20035;-76
2022/10/22 07:13:49;;;;;;;1.25;0.73;;;13.60;99.90;;;;;;5143807;27;20095;-77
2022/10/22 07:16:15;;;;;;;0.00;0.00;;;13.60;99.90;;;;;;5151714;27;20050;-76
2022/10/22 07:18:42;;;;;;;0.77;0.77;;;13.60;99.90;;;;;;5142541;27;20041;-76
2022/10/22 07:21:09;;;;;;;0.10;0.10;;;13.70;99.90;;;;;;5143209;27;20087;-77
2022/10/22 07:23:35;;;;;;;0.20;0.20;;;13.70;99.90;;;;;;5124345;27;20047;-77
2022/10/22 07:26:01;;;;;;;0.80;0.40;;;13.70;99.90;;;;;;5146739;27;20045;-76
2022/10/22 07:28:27;;;;;;;0.10;0.10;;;13.60;99.90;;;;;;5144976;27;20043;-77
2022/10/22 07:30:53;;;;;;;0.10;0.10;;;13.70;99.90;;;;;;5139239;27;20088;-77
2022/10/22 07:33:19;;;;;;;0.00;0.00;;;13.70;99.90;;;;;;5145562;27;20482;-77
2022/10/22 07:35:44;;;;;;;0.03;0.03;;;13.70;99.90;;;;;;5150884;27;20099;-77
2022/10/22 07:38:10;;;;;;;0.20;0.20;;;13.60;99.90;;;;;;5135171;27;20401;-78
2022/10/22 07:40:36;;;;;;;0.10;0.10;;;13.70;99.90;;;;;;5142029;27;20046;-78
2022/10/22 07:43:03;;;;;;;0.10;0.10;;;13.70;99.90;;;;;;5153415;27;20053;-78
2022/10/22 07:45:28;;;;;;;0.00;0.00;;;13.70;99.90;;;;;;5142197;27;20035;-78
2022/10/22 07:47:54;;;;;;;0.00;0.00;;;13.70;99.90;;;;;;5123303;27;20047;-78
2022/10/22 07:50:20;;;;;;;0.10;0.10;;;13.80;99.90;;;;;;5113504;27;20059;-78
2022/10/22 07:52:46;;;;;;;0.20;0.20;;;13.80;99.90;;;;;;5144378;27;20089;-77
2022/10/22 07:55:12;;;;;;;1.50;0.40;;;13.90;99.90;;;;;;5153391;27;20037;-78
2022/10/22 07:57:38;;;;;;;0.10;0.10;;;13.90;99.90;;;;;;5152896;27;20439;-78
2022/10/22 08:00:06;;;;;;;0.00;0.00;;;13.90;99.90;;;;;;5129672;27;20035;-78
2022/10/22 08:02:31;;;;;;;0.10;0.10;;;14.00;99.90;;;;;;5132544;27;20060;-77
2022/10/22 08:04:58;;;;;;;0.52;0.52;;;14.00;99.90;;;;;;5131953;27;20049;-77
2022/10/22 08:07:23;;;;;;;0.85;0.85;;;14.00;99.90;;;;;;5152608;27;20043;-77
2022/10/22 08:09:49;;;;;;;0.10;0.10;;;14.10;99.90;;;;;;5152534;27;20098;-77
2022/10/22 08:12:15;;;;;;;0.08;0.08;;;14.10;99.90;;;;;;5150435;27;20038;-77
2022/10/22 08:14:40;;;;;;;0.10;0.10;;;14.20;99.90;;;;;;5130012;27;20038;-77
2022/10/22 08:17:06;;;;;;;0.38;0.38;;;14.20;99.90;;;;;;5132173;27;20047;-76
2022/10/22 08:19:31;;;;;;;0.05;0.05;;;14.30;99.90;;;;;;5132540;27;20050;-78
2022/10/22 08:21:58;;;;;;;0.35;0.35;;;14.40;99.90;;;;;;5136978;27;20121;-77
2022/10/22 08:24:25;;;;;;;0.00;0.00;;;14.50;99.90;;;;;;5140651;27;20034;-77
2022/10/22 08:26:53;;;;;;;0.10;0.10;;;14.60;99.90;;;;;;5148323;27;20039;-77
2022/10/22 08:29:21;;;;;;;9.07;2.08;;;14.70;99.90;;;;;;5129292;27;20046;-76
2022/10/22 08:31:48;;;;;;;0.63;0.63;;;14.80;99.90;;;;;;5151834;27;20050;-76
2022/10/22 08:34:14;;;;;;;0.38;0.38;;;14.80;99.90;;;;;;5146466;27;20451;-76
2022/10/22 08:36:39;;;;;;;0.20;0.20;;;14.80;99.90;;;;;;5148101;27;20083;-77
2022/10/22 08:39:05;;;;;;;0.00;0.00;;;14.90;99.90;;;;;;5146706;27;20039;-77
2022/10/22 08:41:34;;;;;;;0.28;0.28;;;14.90;99.90;;;;;;5135664;27;20391;-77
2022/10/22 08:44:07;;;;;;;2.67;0.57;;;14.90;99.90;;;;;;5145900;27;20039;-77
2022/10/22 08:46:36;;;;;;;1.90;0.85;;;15.00;99.90;;;;;;5147550;27;20071;-77
2022/10/22 08:49:08;;;;;;;0.30;0.30;;;15.10;99.90;;;;;;5139407;27;20492;-77
2022/10/22 08:51:39;;;;;;;0.30;0.30;;;15.20;99.90;;;;;;5145834;27;20896;-76
2022/10/22 08:54:13;;;;;;;0.20;0.20;;;15.20;99.90;;;;;;5127727;27;20045;-77
2022/10/22 08:56:44;;;;;;;0.30;0.30;;;15.30;99.90;;;;;;5140122;27;20055;-77
2022/10/22 08:59:26;;;;;;;0.20;0.20;;;15.30;99.90;;;;;;5143684;27;20034;-77
2022/10/22 09:01:53;;;;;;;0.10;0.10;;;15.30;99.90;;;;;;5149953;27;20031;-75
2022/10/22 09:04:27;;;;;;;0.10;0.10;;;15.30;99.90;;;;;;5137896;27;20047;-76
2022/10/22 09:06:56;;;;;;;0.10;0.10;;;15.40;99.90;;;;;;5113318;27;20486;-79
2022/10/22 09:09:26;;;;;;;0.10;0.10;;;15.30;99.90;;;;;;5140390;27;20117;-79
2022/10/22 09:11:55;;;;;;;0.30;0.30;;;15.30;99.90;;;;;;5143161;27;20391;-80
2022/10/22 09:14:23;;;;;;;0.10;0.10;;;15.30;99.90;;;;;;5138175;27;20043;-79
2022/10/22 09:17:16;;;;;;;1.35;1.25;;;15.30;99.90;;;;;;5141124;27;20107;-79
2022/10/22 09:20:10;;;;;;;0.20;0.20;;;15.30;99.90;;;;;;5118755;27;20375;-79
2022/10/22 09:22:53;;;;;;;0.38;0.38;;;15.20;99.90;;;;;;5135671;27;20474;-79
2022/10/22 09:25:27;;;;;;;0.10;0.10;;;15.30;99.90;;;;;;5133251;27;20148;-79
2022/10/22 09:27:57;;;;;;;0.80;0.70;;;15.30;99.90;;;;;;5151919;27;20095;-79
2022/10/22 09:30:26;;;;;;;0.03;0.03;;;15.30;99.90;;;;;;5143363;27;20053;-80
2022/10/22 09:33:06;;;;;;;0.10;0.10;;;15.30;99.90;;;;;;5131183;27;20462;-80
2022/10/22 09:35:34;;;;;;;0.00;0.00;;;15.40;99.90;;;;;;5140239;27;20047;-79
2022/10/22 09:38:07;;;;;;;0.40;0.40;;;15.40;99.90;;;;;;5123983;28;20436;-79
2022/10/22 09:40:45;;;;;;;0.63;0.63;;;15.50;99.90;;;;;;5133015;27;20072;-80
2022/10/22 09:43:13;;;;;;;0.55;0.35;;;15.50;99.90;;;;;;5143778;27;20046;-80
2022/10/22 09:45:40;;;;;;;0.43;0.43;;;15.50;99.90;;;;;;5142827;27;20046;-80
2022/10/22 09:48:20;;;;;;;0.63;0.63;;;15.40;99.90;;;;;;5150840;27;20046;-82
2022/10/22 09:50:54;;;;;;;0.10;0.10;;;15.50;99.90;;;;;;5145818;27;20118;-83
2022/10/22 09:53:25;;;;;;;0.00;0.00;;;15.50;99.90;;;;;;5148148;27;20482;-79
2022/10/22 09:55:57;;;;;;;0.00;0.00;;;15.40;99.90;;;;;;5151141;27;20507;-80
2022/10/22 09:58:23;;;;;;;0.25;0.25;;;15.40;99.90;;;;;;5152011;27;20078;-82
2022/10/22 10:00:55;;;;;;;0.40;0.40;;;15.40;99.90;;;;;;5156108;27;20566;-81
2022/10/22 10:03:24;;;;;;;0.00;0.00;;;15.50;99.90;;;;;;5123206;27;20086;-81
2022/10/22 10:05:56;;;;;;;0.10;0.10;;;15.70;99.90;;;;;;5151154;27;20045;-81
2022/10/22 10:08:22;;;;;;;0.20;0.20;;;15.90;99.90;;;;;;5145471;27;20134;-79
2022/10/22 10:10:55;;;;;;;0.03;0.03;;;16.00;99.90;;;;;;5131371;27;20486;-83
2022/10/22 10:13:44;;;;;;;0.30;0.25;;;16.00;99.90;;;;;;5154468;27;20584;-82
2022/10/22 10:16:23;;;;;;;1.85;1.10;;;16.00;99.90;;;;;;5134509;27;20043;-83
2022/10/22 10:19:06;;;;;;;0.08;0.08;;;16.10;99.90;;;;;;5151683;27;20048;-82
2022/10/22 10:22:00;;;;;;;0.47;0.47;;;16.20;99.90;;;;;;5155909;27;20133;-80
2022/10/22 10:24:44;;;;;;;0.10;0.10;;;16.20;99.90;;;;;;5143888;27;20809;-81
2022/10/22 10:27:32;;;;;;;0.10;0.10;;;16.30;99.90;;;;;;5135239;27;20047;-82
2022/10/22 10:30:10;;;;;;;0.10;0.10;;;16.50;99.90;;;;;;5134740;27;20043;-81
2022/10/22 10:32:54;;;;;;;0.68;0.68;;;16.40;99.90;;;;;;5134377;27;20049;-82
2022/10/22 10:35:47;;;;;;;0.25;0.22;;;16.20;99.90;;;;;;5134163;27;20513;-81
2022/10/22 10:38:37;;;;;;;0.00;0.00;;;16.10;99.90;;;;;;5149495;27;20042;-81
2022/10/22 10:41:19;;;;;;;0.28;0.28;;;16.00;99.90;;;;;;5144818;27;20431;-81
2022/10/22 10:44:22;;;;;;;0.15;0.15;;;15.90;99.90;;;;;;5134299;27;20055;-80
2022/10/22 10:46:54;;;;;;;0.45;0.45;;;15.80;99.90;;;;;;5132742;27;20058;-82
2022/10/22 10:49:31;;;;;;;0.15;0.15;;;15.70;99.90;;;;;;5142053;27;20050;-81
2022/10/22 10:52:24;;;;;;;0.05;0.05;;;15.60;99.90;;;;;;5151119;27;20443;-81
2022/10/22 10:55:09;;;;;;;0.10;0.10;;;15.50;99.90;;;;;;5135824;27;20043;-76
2022/10/22 10:57:52;;;;;;;0.10;0.10;;;15.50;99.90;;;;;;5146992;27;20039;-82
2022/10/22 11:00:20;;;;;;;0.15;0.15;;;15.40;99.90;;;;;;5133490;27;20038;-81
2022/10/22 11:03:16;;;;;;;0.10;0.10;;;15.40;99.90;;;;;;5133867;27;20417;-81
2022/10/22 11:05:52;;;;;;;0.13;0.13;;;15.40;99.90;;;;;;5134444;27;20135;-81
2022/10/22 11:08:23;;;;;;;0.38;0.38;;;15.30;99.90;;;;;;5132154;27;20054;-82
2022/10/22 11:11:05;;;;;;;0.20;0.20;;;15.40;99.90;;;;;;5123634;27;20074;-81
2022/10/22 11:14:00;;;;;;;0.93;0.85;;;15.40;99.90;;;;;;5133511;27;20087;-81
2022/10/22 11:16:43;;;;;;;0.20;0.20;;;15.40;99.90;;;;;;5132477;27;20039;-81
2022/10/22 11:19:26;;;;;;;3.63;1.23;;;15.50;99.90;;;;;;5133487;27;20046;-81
2022/10/22 11:22:03;;;;;;;0.38;0.38;;;15.60;99.90;;;;;;5142866;27;20074;-81
2022/10/22 11:24:34;;;;;;;0.10;0.10;;;15.60;99.90;;;;;;5143168;27;20431;-82
2022/10/22 11:27:08;;;;;;;6.13;1.83;;;15.70;99.90;;;;;;5153104;27;20043;-81
2022/10/22 11:29:39;;;;;;;0.57;0.30;;;15.70;99.90;;;;;;5132871;27;20043;-82
2022/10/22 11:32:14;;;;;;;0.10;0.10;;;15.70;99.90;;;;;;5132675;27;20047;-82
2022/10/22 11:34:45;;;;;;;0.70;0.70;;;15.60;99.90;;;;;;5132060;27;20420;-82
2022/10/22 11:37:13;;;;;;;0.20;0.20;;;15.60;99.90;;;;;;5123422;27;20039;-81
2022/10/22 11:39:43;;;;;;;1.55;0.90;;;15.60;99.90;;;;;;5119008;27;20035;-81
2022/10/22 11:42:16;;;;;;;0.45;0.45;;;15.60;99.90;;;;;;5136607;27;20121;-81
2022/10/22 11:44:59;;;;;;;0.20;0.20;;;15.50;99.90;;;;;;5146728;27;20043;-82
2022/10/22 11:47:45;;;;;;;0.00;0.00;;;15.50;99.90;;;;;;5144748;27;20096;-81
2022/10/22 11:50:21;;;;;;;0.10;0.10;;;15.40;99.90;;;;;;5151570;27;20035;-82
2022/10/22 11:53:26;;;;;;;0.70;0.70;;;15.60;99.90;;;;;;5152974;27;20042;-82
2022/10/22 11:55:54;;;;;;;0.10;0.10;;;15.70;99.90;;;;;;5148154;27;20053;-82
2022/10/22 11:58:42;;;;;;;0.10;0.10;;;15.70;99.90;;;;;;5151068;27;20035;-82
2022/10/22 12:01:08;;;;;;;0.10;0.10;;;15.80;99.90;;;;;;5150260;27;20043;-81
2022/10/22 12:03:33;;;;;;;0.10;0.10;;;15.90;99.90;;;;;;5136877;27;20171;-82
2022/10/22 12:06:01;;;;;;;0.32;0.32;;;15.90;99.90;;;;;;5135640;27;20643;-81
2022/10/22 12:08:27;;;;;;;0.20;0.20;;;16.00;99.90;;;;;;5148711;27;20054;-83
2022/10/22 12:11:04;;;;;;;0.10;0.10;;;16.10;99.90;;;;;;5145461;27;20030;-81
2022/10/22 12:13:51;;;;;;;0.10;0.10;;;16.10;99.90;;;;;;5147045;27;20038;-82
2022/10/22 12:16:18;;;;;;;0.00;0.00;;;16.10;99.90;;;;;;5132071;27;20039;-82
2022/10/22 12:18:45;;;;;;;0.05;0.05;;;16.20;99.90;;;;;;5135875;27;20046;-81
2022/10/22 12:21:13;;;;;;;0.35;0.35;;;16.20;99.90;;;;;;5139895;27;20047;-82
2022/10/22 12:23:38;;;;;;;0.00;0.00;;;16.20;99.90;;;;;;5152881;27;20150;-82
2022/10/22 12:26:04;;;;;;;0.00;0.00;;;16.20;99.90;;;;;;5131909;27;20051;-82
2022/10/22 12:28:40;;;;;;;0.10;0.10;;;16.30;99.90;;;;;;5152763;27;20138;-81
2022/10/22 12:31:13;;;;;;;0.00;0.00;;;16.30;99.90;;;;;;5132591;27;20047;-81
2022/10/22 12:33:39;;;;;;;0.10;0.10;;;16.30;99.90;;;;;;5153040;27;20117;-83
2022/10/22 12:36:05;;;;;;;0.00;0.00;;;16.30;99.90;;;;;;5153064;27;20121;-81
2022/10/22 12:38:30;;;;;;;2.65;0.75;;;16.30;99.90;;;;;;5128065;27;20043;-82
2022/10/22 12:40:57;;;;;;;0.08;0.08;;;16.40;99.90;;;;;;5138215;27;20043;-83
2022/10/22 12:43:28;;;;;;;0.00;0.00;;;16.40;99.90;;;;;;5113629;27;20099;-83
2022/10/22 12:45:56;;;;;;;0.10;0.10;;;16.40;99.90;;;;;;5130915;27;20050;-83
2022/10/22 12:48:33;;;;;;;0.00;0.00;;;16.50;99.90;;;;;;5131099;27;20482;-83
2022/10/22 12:51:01;;;;;;;0.00;0.00;;;16.60;99.90;;;;;;5151268;27;20378;-83
2022/10/22 12:53:38;;;;;;;0.00;0.00;;;16.60;99.90;;;;;;5142946;27;20057;-83
2022/10/22 12:56:06;;;;;;;0.00;0.00;;;16.70;99.90;;;;;;5125071;27;20099;-83
2022/10/22 12:58:44;;;;;;;0.10;0.10;;;16.70;99.90;;;;;;5132748;27;20043;-83
2022/10/22 13:01:12;;;;;;;0.05;0.05;;;16.80;99.90;;;;;;5134972;27;20503;-83
2022/10/22 13:03:43;;;;;;;0.03;0.03;;;17.00;99.90;;;;;;5132765;27;20039;-83
2022/10/22 13:06:17;;;;;;;1.75;1.65;;;17.50;99.90;;;;;;5132911;27;20043;-84